Wetterstation-Oberesslingen
Wetterdaten: aktuell Dienstag, 22.09.2020 22:15
Datum Zeit Temperatur BodenT. -10 Temp+5cm Luftfeuchte Bod.Feuchte Luftdruck Regen Wind Richtung Richtung Sonnenschein ET Solar Taupunkt Windchill Windben
22.09.2020 22:15 18,3 C 19,4 C 15,6 C 65 % 132 cb 1008,7 hPa 0,0 l/m 2,7 km/h (1 Bft) O 90 0 min 0,000 mm 0 W/m 11,6 C 18,3 C 4,8 km/h (1 Bft)
22.09.2020 21:15 18,6 C 20,0 C 16,1 C 65 % 132 cb 1008,7 hPa 0,0 l/m 2,7 km/h (1 Bft) O 90 0 min 0,000 mm 0 W/m 11,9 C 18,6 C 4,8 km/h (1 Bft)
22.09.2020 20:15 18,6 C 20,0 C 13,9 C 63 % 129 cb 1008,5 hPa 0,0 l/m 2,7 km/h (1 Bft) O 90 0 min 0,025 mm 0 W/m 11,4 C 18,6 C 4,8 km/h (1 Bft)
22.09.2020 19:15 21,0 C 20,0 C 16,1 C 56 % 125 cb 1008,2 hPa 0,0 l/m 2,7 km/h (1 Bft) S-SO 157 0 min 0,025 mm 7 W/m 11,9 C 21,0 C 3,2 km/h (1 Bft)
22.09.2020 18:15 23,6 C 20,0 C 18,3 C 45 % 119 cb 1008,2 hPa 0,0 l/m 2,7 km/h (1 Bft) S-SO 157 25 min 0,127 mm 28 W/m 11,0 C 23,6 C 3,2 km/h (1 Bft)
22.09.2020 17:15 25,9 C 20,0 C 25,0 C 37 % 113 cb 1008,5 hPa 0,0 l/m 4,3 km/h (1 Bft) SO 135 45 min 0,178 mm 260 W/m 10,1 C 25,9 C 9,7 km/h (2 Bft)
22.09.2020 16:15 26,3 C 19,4 C 28,3 C 39 % 107 cb 1009,5 hPa 0,0 l/m 4,3 km/h (1 Bft) S 180 50 min 0,330 mm 265 W/m 11,2 C 26,3 C 11,3 km/h (2 Bft)
22.09.2020 15:15 26,3 C 19,4 C 36,1 C 39 % 104 cb 1010,1 hPa 0,0 l/m 4,3 km/h (1 Bft) W-NW 292 60 min 0,381 mm 563 W/m 11,2 C 26,3 C 9,7 km/h (2 Bft)
22.09.2020 14:15 25,9 C 18,9 C 37,8 C 43 % 101 cb 1010,7 hPa 0,0 l/m 7,6 km/h (2 Bft) O 90 55 min 0,356 mm 591 W/m 12,3 C 25,9 C 12,9 km/h (3 Bft)
22.09.2020 13:15 24,4 C 18,3 C 37,8 C 50 % 101 cb 1011,5 hPa 0,0 l/m 4,3 km/h (1 Bft) S-SO 157 45 min 0,330 mm 612 W/m 13,3 C 24,4 C 6,4 km/h (2 Bft)
22.09.2020 12:15 23,2 C 18,3 C 11,7 C 52 % 113 cb 1012,1 hPa 0,0 l/m 4,3 km/h (1 Bft) W-SW 247 55 min 0,279 mm 582 W/m 12,8 C 23,2 C 6,4 km/h (2 Bft)
22.09.2020 11:15 20,5 C 18,3 C 11,7 C 64 % 113 cb 1012,6 hPa 0,0 l/m 2,7 km/h (1 Bft) W-SW 247 50 min 0,203 mm 332 W/m 13,5 C 20,5 C 4,8 km/h (1 Bft)
22.09.2020 10:15 18,4 C 18,3 C 11,7 C 71 % 113 cb 1013,1 hPa 0,0 l/m 4,3 km/h (1 Bft) SO 135 60 min 0,152 mm 387 W/m 13,0 C 18,4 C 4,8 km/h (1 Bft)
22.09.2020 09:15 16,6 C 18,3 C 11,7 C 76 % 113 cb 1013,1 hPa 0,0 l/m 4,3 km/h (1 Bft) O-SO 112 60 min 0,076 mm 244 W/m 12,3 C 16,6 C 4,8 km/h (1 Bft)
22.09.2020 08:15 14,8 C 18,3 C 11,7 C 80 % 113 cb 1013,2 hPa 0,0 l/m 2,7 km/h (1 Bft) SO 135 20 min 0,025 mm 105 W/m 11,4 C 14,8 C 4,8 km/h (1 Bft)
22.09.2020 07:15 14,1 C 18,3 C 11,7 C 81 % 113 cb 1012,9 hPa 0,0 l/m 2,7 km/h (1 Bft) SO 135 0 min 0,000 mm 7 W/m 10,9 C 14,1 C 3,2 km/h (1 Bft)
22.09.2020 06:15 14,2 C 18,3 C 11,7 C 81 % 113 cb 1013,0 hPa 0,0 l/m 4,3 km/h (1 Bft) O-SO 112 0 min 0,000 mm 0 W/m 11,0 C 14,2 C 4,8 km/h (1 Bft)
22.09.2020 05:15 14,2 C 18,3 C 11,7 C 81 % 113 cb 1013,0 hPa 0,0 l/m 2,7 km/h (1 Bft) O-SO 112 0 min 0,000 mm 0 W/m 11,0 C 14,2 C 3,2 km/h (1 Bft)
22.09.2020 04:15 13,7 C 18,3 C 10,6 C 83 % 114 cb 1013,0 hPa 0,0 l/m 2,7 km/h (1 Bft) O-SO 112 0 min 0,000 mm 0 W/m 10,9 C 13,7 C 3,2 km/h (1 Bft)
22.09.2020 03:15 14,4 C 18,9 C 10,6 C 80 % 116 cb 1013,1 hPa 0,0 l/m 1,1 km/h (1 Bft) O-SO 112 0 min 0,000 mm 0 W/m 11,0 C 14,4 C 1,6 km/h (1 Bft)
22.09.2020 02:15 14,8 C 18,9 C 11,1 C 79 % 116 cb 1013,3 hPa 0,0 l/m 1,1 km/h (1 Bft) N 0 0 min 0,000 mm 0 W/m 11,2 C 14,8 C 0,0 km/h (0 Bft)
22.09.2020 01:15 15,4 C 18,9 C 11,7 C 78 % 115 cb 1013,5 hPa 0,0 l/m 1,1 km/h (1 Bft) O-NO 67 0 min 0,000 mm 0 W/m 11,6 C 15,4 C 1,6 km/h (1 Bft)
22.09.2020 00:15 16,4 C 18,9 C 12,8 C 76 % 114 cb 1013,7 hPa 0,0 l/m 2,7 km/h (1 Bft) O-NO 67 0 min 0,000 mm 0 W/m 12,2 C 16,4 C 4,8 km/h (1 Bft)
21.09.2020 23:15 17,8 C 19,4 C 14,4 C 73 % 114 cb 1013,9 hPa 0,0 l/m 1,1 km/h (1 Bft) O-NO 67 0 min 0,000 mm 0 W/m 12,9 C 17,8 C 1,6 km/h (1 Bft)
21.09.2020 23:00 17,8 C 19,4 C 13,9 C 73 % 114 cb 1014,0 hPa 0,0 l/m 1,1 km/h (1 Bft) O-NO 67 0 min 0,000 mm 0 W/m 12,9 C 17,8 C 3,2 km/h (1 Bft)
_ Min-Zeit 04:00 03:40 03:10 15:45 13:30 19:20 - 23:00 - - - - - 17:35 04:00 23:20
Minimum _ 13,7 C 18,3 C 10,6 C 36 % 100 cb 1008,1 hPa - 1,1 km/h (1 Bft) - - - - - 9,9 C 13,7 C 0,0 km/h (0 Bft)
_ Max-Zeit 15:40 16:30 14:35 04:05 21:10 23:00 23:00 14:15 - - 07:20 15:00 13:25 14:20 15:40 15:40
Maximum _ 27,1 C 20,0 C 38,9 C 83 % 132 cb 1014,0 hPa 0,0 l/m 7,6 km/h
O (2 Bft)
- - 5 min 0,381 mm 621 W/m 13,7 C 27,1 C 14,5 km/h
S-SO (3 Bft)
Durchschnitt _ 19,0 C 19,0 C 17,1 C 66 % 114 cb 1011,7 hPa #0,0 l/m 2,7 km/h (1 Bft) O-SO - #8:45 h #2,487 mm 328 W/m 11,8 C 19,0 C 4,4 km/h (1 Bft)